ARG1680 SABE-SAZS
Flight info
| Callsign | ARG1680 |
|---|---|
| Flight time | 2h 14m |
| Altitude | 36000 |
| Route | PAL9XTORUL/31 TORUL UT654 ORERA ORERA1Q |
| Aircraft | B738/M-MSDFGHILRVW/LB1 |
Departure
| Time | 2026-05-03 21:21 |
|---|---|
| Airport | Aeroparque Jorge Newbery (SABE) |
Arrival
| Time | 2026-05-03 23:35 |
|---|---|
| Airport | Teniente Luis Candelaria International Airport (SAZS) |
| Time | Latitude | Longitude | Altitude | Speed | Heading |
|---|---|---|---|---|---|
| 2026-05-03 20:15 | -34.55780 | -58.41289 | 24 ft | 0 kts | 36° |
| 2026-05-03 20:52 | -34.55783 | -58.41292 | 24 ft | 4 kts | 36° |
| 2026-05-03 20:52 | -34.55806 | -58.41309 | 25 ft | 4 kts | 16° |
| 2026-05-03 20:52 | -34.55823 | -58.41308 | 29 ft | 2 kts | 301° |
| 2026-05-03 20:53 | -34.55836 | -58.41281 | 30 ft | 4 kts | 301° |
| 2026-05-03 20:53 | -34.55840 | -58.41274 | 30 ft | 0 kts | 301° |
| 2026-05-03 20:56 | -34.55839 | -58.41276 | 24 ft | 1 kts | 301° |
| 2026-05-03 20:56 | -34.55827 | -58.41300 | 27 ft | 5 kts | 301° |
| 2026-05-03 20:56 | -34.55802 | -58.41349 | 28 ft | 8 kts | 303° |
| 2026-05-03 20:56 | -34.55769 | -58.41406 | 25 ft | 8 kts | 304° |
| 2026-05-03 20:57 | -34.55740 | -58.41463 | 26 ft | 8 kts | 297° |
| 2026-05-03 20:57 | -34.55721 | -58.41524 | 24 ft | 8 kts | 271° |
| 2026-05-03 20:57 | -34.55754 | -58.41573 | 24 ft | 8 kts | 215° |
| 2026-05-03 20:57 | -34.55791 | -58.41591 | 24 ft | 9 kts | 173° |
| 2026-05-03 20:58 | -34.55829 | -58.41529 | 27 ft | 11 kts | 118° |
| 2026-05-03 20:58 | -34.55876 | -58.41417 | 25 ft | 19 kts | 117° |
| 2026-05-03 20:58 | -34.55936 | -58.41285 | 28 ft | 18 kts | 124° |
| 2026-05-03 20:58 | -34.56008 | -58.41166 | 25 ft | 17 kts | 127° |
| 2026-05-03 20:59 | -34.56074 | -58.41062 | 26 ft | 15 kts | 127° |
| 2026-05-03 20:59 | -34.56132 | -58.40963 | 26 ft | 14 kts | 125° |
| 2026-05-03 20:59 | -34.56170 | -58.40882 | 28 ft | 7 kts | 105° |
| 2026-05-03 20:59 | -34.56171 | -58.40863 | 24 ft | 0 kts | 88° |
| 2026-05-03 21:02 | -34.56171 | -58.40851 | 28 ft | 5 kts | 89° |
| 2026-05-03 21:02 | -34.56186 | -58.40805 | 26 ft | 0 kts | 123° |
| 2026-05-03 21:03 | -34.56195 | -58.40789 | 27 ft | 6 kts | 123° |
| 2026-05-03 21:04 | -34.56202 | -58.40775 | 26 ft | 0 kts | 123° |
| 2026-05-03 21:05 | -34.56204 | -58.40771 | 26 ft | 1 kts | 123° |
| 2026-05-03 21:05 | -34.56207 | -58.40765 | 25 ft | 0 kts | 123° |
| 2026-05-03 21:06 | -34.56208 | -58.40765 | 25 ft | 0 kts | 123° |
| 2026-05-03 21:06 | -34.56224 | -58.40735 | 25 ft | 11 kts | 124° |
| 2026-05-03 21:06 | -34.56272 | -58.40650 | 26 ft | 8 kts | 123° |
| 2026-05-03 21:06 | -34.56273 | -58.40647 | 25 ft | 0 kts | 123° |
| 2026-05-03 21:08 | -34.56274 | -58.40646 | 26 ft | 1 kts | 123° |
| 2026-05-03 21:08 | -34.56286 | -58.40624 | 26 ft | 6 kts | 125° |
| 2026-05-03 21:09 | -34.56294 | -58.40612 | 26 ft | 0 kts | 126° |
| 2026-05-03 21:11 | -34.56295 | -58.40610 | 24 ft | 1 kts | 126° |
| 2026-05-03 21:11 | -34.56300 | -58.40602 | 27 ft | 2 kts | 126° |
| 2026-05-03 21:11 | -34.56313 | -58.40581 | 24 ft | 4 kts | 129° |
| 2026-05-03 21:12 | -34.56333 | -58.40557 | 26 ft | 0 kts | 137° |
| 2026-05-03 21:14 | -34.56337 | -58.40554 | 25 ft | 2 kts | 137° |
| 2026-05-03 21:14 | -34.56354 | -58.40535 | 27 ft | 5 kts | 139° |
| 2026-05-03 21:14 | -34.56367 | -58.40521 | 28 ft | 1 kts | 138° |
| 2026-05-03 21:15 | -34.56373 | -58.40514 | 24 ft | 2 kts | 138° |
| 2026-05-03 21:15 | -34.56378 | -58.40509 | 26 ft | 0 kts | 137° |
| 2026-05-03 21:15 | -34.56382 | -58.40505 | 27 ft | 3 kts | 137° |
| 2026-05-03 21:16 | -34.56410 | -58.40474 | 25 ft | 0 kts | 137° |
| 2026-05-03 21:16 | -34.56411 | -58.40473 | 24 ft | 0 kts | 137° |
| 2026-05-03 21:17 | -34.56424 | -58.40458 | 27 ft | 6 kts | 137° |
| 2026-05-03 21:17 | -34.56476 | -58.40403 | 26 ft | 11 kts | 138° |
| 2026-05-03 21:18 | -34.56543 | -58.40400 | 25 ft | 11 kts | 215° |
| 2026-05-03 21:18 | -34.56547 | -58.40463 | 26 ft | 0 kts | 304° |
| 2026-05-03 21:20 | -34.56465 | -58.40607 | 28 ft | 60 kts | 304° |
| 2026-05-03 21:20 | -34.56086 | -58.41290 | 29 ft | 133 kts | 305° |
| 2026-05-03 21:21 | -34.55517 | -58.42312 | 547 ft | 151 kts | 306° |
| 2026-05-03 21:21 | -34.54912 | -58.43394 | 1347 ft | 154 kts | 312° |
| 2026-05-03 21:21 | -34.54078 | -58.44147 | 2105 ft | 157 kts | 347° |
| 2026-05-03 21:21 | -34.52953 | -58.43917 | 2674 ft | 181 kts | 29° |
| 2026-05-03 21:22 | -34.51999 | -58.42839 | 3476 ft | 189 kts | 42° |
| 2026-05-03 21:22 | -34.51031 | -58.41801 | 4453 ft | 184 kts | 31° |
| 2026-05-03 21:22 | -34.49949 | -58.40796 | 5030 ft | 204 kts | 32° |
| 2026-05-03 21:22 | -34.48772 | -58.39778 | 5655 ft | 212 kts | 30° |
| 2026-05-03 21:23 | -34.47520 | -58.38722 | 6190 ft | 227 kts | 31° |
| 2026-05-03 21:23 | -34.46638 | -58.37964 | 6482 ft | 244 kts | 31° |
| 2026-05-03 21:23 | -34.45177 | -58.36699 | 6825 ft | 271 kts | 31° |
| 2026-05-03 21:23 | -34.43746 | -58.35107 | 7446 ft | 291 kts | 50° |
| 2026-05-03 21:24 | -34.42971 | -58.32779 | 8258 ft | 305 kts | 80° |
| 2026-05-03 21:24 | -34.43078 | -58.30206 | 9329 ft | 308 kts | 104° |
| 2026-05-03 21:24 | -34.43939 | -58.27839 | 10274 ft | 312 kts | 128° |
| 2026-05-03 21:24 | -34.45588 | -58.26129 | 10983 ft | 316 kts | 157° |
| 2026-05-03 21:25 | -34.47749 | -58.25484 | 11285 ft | 332 kts | 184° |
| 2026-05-03 21:25 | -34.50039 | -58.26018 | 11709 ft | 340 kts | 207° |
| 2026-05-03 21:25 | -34.52003 | -58.27519 | 12496 ft | 337 kts | 226° |
| 2026-05-03 21:25 | -34.53621 | -58.29565 | 13469 ft | 337 kts | 230° |
| 2026-05-03 21:26 | -34.55201 | -58.31722 | 14414 ft | 338 kts | 231° |
| 2026-05-03 21:26 | -34.56733 | -58.33857 | 15286 ft | 341 kts | 231° |
| 2026-05-03 21:26 | -34.58294 | -58.36037 | 16190 ft | 344 kts | 231° |
| 2026-05-03 21:26 | -34.59881 | -58.38242 | 17078 ft | 347 kts | 231° |
| 2026-05-03 21:27 | -34.61482 | -58.40459 | 17981 ft | 350 kts | 231° |
| 2026-05-03 21:27 | -34.63098 | -58.42687 | 18785 ft | 353 kts | 231° |
| 2026-05-03 21:27 | -34.64743 | -58.44946 | 19531 ft | 357 kts | 231° |
| 2026-05-03 21:27 | -34.66402 | -58.47218 | 20264 ft | 361 kts | 231° |
| 2026-05-03 21:28 | -34.68074 | -58.49506 | 20987 ft | 364 kts | 231° |
| 2026-05-03 21:28 | -34.69761 | -58.51815 | 21699 ft | 367 kts | 231° |
| 2026-05-03 21:28 | -34.71460 | -58.54142 | 22382 ft | 371 kts | 231° |
| 2026-05-03 21:28 | -34.73207 | -58.56536 | 23066 ft | 375 kts | 231° |
| 2026-05-03 21:29 | -34.74936 | -58.58907 | 23725 ft | 378 kts | 231° |
| 2026-05-03 21:29 | -34.76693 | -58.61318 | 24295 ft | 381 kts | 231° |
| 2026-05-03 21:29 | -34.78432 | -58.63706 | 24910 ft | 382 kts | 231° |
| 2026-05-03 21:29 | -34.80202 | -58.66137 | 25528 ft | 383 kts | 231° |
| 2026-05-03 21:30 | -34.81975 | -58.68575 | 26087 ft | 385 kts | 231° |
| 2026-05-03 21:30 | -34.83760 | -58.71032 | 26629 ft | 388 kts | 231° |
| 2026-05-03 21:30 | -34.85554 | -58.73503 | 27154 ft | 390 kts | 231° |
| 2026-05-03 21:30 | -34.87338 | -58.75962 | 27670 ft | 392 kts | 231° |
| 2026-05-03 21:31 | -34.89171 | -58.78490 | 28171 ft | 395 kts | 231° |
| 2026-05-03 21:31 | -34.90974 | -58.80979 | 28675 ft | 397 kts | 231° |
| 2026-05-03 21:31 | -34.92811 | -58.83516 | 29153 ft | 399 kts | 231° |
| 2026-05-03 21:31 | -34.94639 | -58.86042 | 29801 ft | 397 kts | 231° |
| 2026-05-03 21:32 | -34.96463 | -58.88563 | 30500 ft | 392 kts | 231° |
| 2026-05-03 21:32 | -34.98251 | -58.91036 | 31153 ft | 388 kts | 231° |
| 2026-05-03 21:32 | -35.00030 | -58.93500 | 31708 ft | 386 kts | 231° |
| 2026-05-03 21:32 | -35.01804 | -58.95960 | 32211 ft | 385 kts | 231° |
| 2026-05-03 21:33 | -35.03570 | -58.98409 | 32754 ft | 384 kts | 231° |
| 2026-05-03 21:33 | -35.05308 | -59.00822 | 33336 ft | 381 kts | 231° |
| 2026-05-03 21:33 | -35.07049 | -59.03241 | 33901 ft | 379 kts | 231° |
| 2026-05-03 21:33 | -35.08784 | -59.05653 | 34379 ft | 377 kts | 231° |
| 2026-05-03 21:34 | -35.10509 | -59.08052 | 34876 ft | 374 kts | 231° |
| 2026-05-03 21:34 | -35.12219 | -59.10433 | 35374 ft | 371 kts | 231° |
| 2026-05-03 21:34 | -35.13921 | -59.12804 | 35852 ft | 369 kts | 231° |
| 2026-05-03 21:34 | -35.15615 | -59.15166 | 36031 ft | 371 kts | 231° |
| 2026-05-03 21:35 | -35.19001 | -59.19892 | 36042 ft | 368 kts | 231° |
| 2026-05-03 21:35 | -35.22368 | -59.24598 | 36054 ft | 367 kts | 231° |
| 2026-05-03 21:36 | -35.25737 | -59.29313 | 36047 ft | 368 kts | 231° |
| 2026-05-03 21:36 | -35.29099 | -59.34025 | 36045 ft | 368 kts | 231° |
| 2026-05-03 21:37 | -35.32464 | -59.38746 | 36043 ft | 368 kts | 231° |
| 2026-05-03 21:37 | -35.35809 | -59.43448 | 36039 ft | 367 kts | 232° |
| 2026-05-03 21:38 | -35.38866 | -59.48439 | 36044 ft | 366 kts | 236° |
| 2026-05-03 21:38 | -35.41823 | -59.53529 | 36034 ft | 366 kts | 236° |
| 2026-05-03 21:39 | -35.44778 | -59.58613 | 36035 ft | 366 kts | 236° |
| 2026-05-03 21:39 | -35.47741 | -59.63699 | 36034 ft | 366 kts | 236° |
| 2026-05-03 21:40 | -35.50691 | -59.68759 | 36032 ft | 366 kts | 236° |
| 2026-05-03 21:40 | -35.53655 | -59.73847 | 36035 ft | 366 kts | 236° |
| 2026-05-03 21:41 | -35.56613 | -59.78933 | 36029 ft | 366 kts | 236° |
| 2026-05-03 21:41 | -35.59566 | -59.84018 | 36026 ft | 365 kts | 236° |
| 2026-05-03 21:42 | -35.62514 | -59.89100 | 36025 ft | 365 kts | 236° |
| 2026-05-03 21:42 | -35.65455 | -59.94178 | 36022 ft | 364 kts | 237° |
| 2026-05-03 21:43 | -35.68388 | -59.99250 | 36019 ft | 364 kts | 237° |
| 2026-05-03 21:43 | -35.71320 | -60.04327 | 36016 ft | 363 kts | 237° |
| 2026-05-03 21:44 | -35.74242 | -60.09394 | 36013 ft | 363 kts | 237° |
| 2026-05-03 21:44 | -35.77162 | -60.14466 | 36014 ft | 363 kts | 237° |
| 2026-05-03 21:45 | -35.80085 | -60.19550 | 36012 ft | 363 kts | 237° |
| 2026-05-03 21:45 | -35.82982 | -60.24597 | 36007 ft | 363 kts | 237° |
| 2026-05-03 21:46 | -35.85901 | -60.29689 | 36002 ft | 363 kts | 237° |
| 2026-05-03 21:46 | -35.88819 | -60.34787 | 36003 ft | 363 kts | 237° |
| 2026-05-03 21:47 | -35.91734 | -60.39887 | 36008 ft | 363 kts | 237° |
| 2026-05-03 21:47 | -35.94643 | -60.44985 | 36004 ft | 364 kts | 237° |
| 2026-05-03 21:48 | -35.97556 | -60.50097 | 36004 ft | 364 kts | 238° |
| 2026-05-03 21:48 | -36.00467 | -60.55213 | 35996 ft | 364 kts | 238° |
| 2026-05-03 21:49 | -36.03362 | -60.60308 | 35991 ft | 363 kts | 238° |
| 2026-05-03 21:49 | -36.06264 | -60.65425 | 35992 ft | 363 kts | 238° |
| 2026-05-03 21:50 | -36.09000 | -60.70254 | 35987 ft | 363 kts | 238° |
| 2026-05-03 21:50 | -36.11898 | -60.75377 | 35990 ft | 363 kts | 238° |
| 2026-05-03 21:51 | -36.14772 | -60.80480 | 35986 ft | 363 kts | 238° |
| 2026-05-03 21:51 | -36.17652 | -60.85625 | 35987 ft | 363 kts | 238° |
| 2026-05-03 21:52 | -36.20527 | -60.90768 | 35981 ft | 363 kts | 238° |
| 2026-05-03 21:52 | -36.23392 | -60.95899 | 35981 ft | 363 kts | 238° |
| 2026-05-03 21:53 | -36.26264 | -61.01050 | 35979 ft | 363 kts | 238° |
| 2026-05-03 21:53 | -36.29135 | -61.06207 | 35975 ft | 364 kts | 238° |
| 2026-05-03 21:54 | -36.32015 | -61.11388 | 35974 ft | 364 kts | 239° |
| 2026-05-03 21:54 | -36.34868 | -61.16528 | 36008 ft | 364 kts | 239° |
| 2026-05-03 21:55 | -36.37751 | -61.21728 | 35985 ft | 365 kts | 239° |
| 2026-05-03 21:55 | -36.40611 | -61.26898 | 35969 ft | 365 kts | 239° |
| 2026-05-03 21:56 | -36.43492 | -61.32115 | 35966 ft | 365 kts | 239° |
| 2026-05-03 21:56 | -36.46360 | -61.37315 | 35967 ft | 365 kts | 239° |
| 2026-05-03 21:57 | -36.49225 | -61.42520 | 35968 ft | 364 kts | 239° |
| 2026-05-03 21:57 | -36.52086 | -61.47725 | 35961 ft | 364 kts | 239° |
| 2026-05-03 21:58 | -36.54943 | -61.52930 | 35957 ft | 364 kts | 239° |
| 2026-05-03 21:58 | -36.57774 | -61.58096 | 35947 ft | 363 kts | 239° |
| 2026-05-03 21:59 | -36.60620 | -61.63298 | 35950 ft | 363 kts | 239° |
| 2026-05-03 21:59 | -36.63460 | -61.68496 | 35945 ft | 363 kts | 239° |
| 2026-05-03 22:00 | -36.66298 | -61.73699 | 35953 ft | 363 kts | 239° |
| 2026-05-03 22:00 | -36.69118 | -61.78878 | 35952 ft | 362 kts | 239° |
| 2026-05-03 22:01 | -36.71952 | -61.84090 | 35944 ft | 363 kts | 240° |
| 2026-05-03 22:01 | -36.74781 | -61.89300 | 35938 ft | 363 kts | 240° |
| 2026-05-03 22:02 | -36.77133 | -61.93637 | 35954 ft | 363 kts | 240° |
| 2026-05-03 22:02 | -36.79960 | -61.98859 | 35941 ft | 363 kts | 240° |
| 2026-05-03 22:03 | -36.82776 | -62.04067 | 35939 ft | 362 kts | 240° |
| 2026-05-03 22:03 | -36.85598 | -62.09295 | 35936 ft | 362 kts | 240° |
| 2026-05-03 22:04 | -36.88409 | -62.14511 | 35938 ft | 361 kts | 240° |
| 2026-05-03 22:04 | -36.91199 | -62.19695 | 35931 ft | 361 kts | 240° |
| 2026-05-03 22:05 | -36.94001 | -62.24911 | 35929 ft | 360 kts | 240° |
| 2026-05-03 22:05 | -36.96795 | -62.30119 | 35929 ft | 360 kts | 240° |
| 2026-05-03 22:06 | -36.99575 | -62.35310 | 35929 ft | 360 kts | 240° |
| 2026-05-03 22:06 | -37.02361 | -62.40521 | 35927 ft | 360 kts | 240° |
| 2026-05-03 22:07 | -37.05145 | -62.45736 | 35926 ft | 360 kts | 240° |
| 2026-05-03 22:07 | -37.07915 | -62.50931 | 35925 ft | 360 kts | 241° |
| 2026-05-03 22:08 | -37.10697 | -62.56157 | 35920 ft | 361 kts | 241° |
| 2026-05-03 22:08 | -37.13483 | -62.61399 | 35917 ft | 361 kts | 241° |
| 2026-05-03 22:09 | -37.16255 | -62.66623 | 35916 ft | 361 kts | 241° |
| 2026-05-03 22:10 | -37.20429 | -62.74506 | 35923 ft | 362 kts | 241° |
| 2026-05-03 22:10 | -37.23220 | -62.79787 | 35908 ft | 362 kts | 241° |
| 2026-05-03 22:11 | -37.26006 | -62.85066 | 35920 ft | 362 kts | 242° |
| 2026-05-03 22:11 | -37.28785 | -62.90341 | 35915 ft | 362 kts | 242° |
| 2026-05-03 22:12 | -37.31541 | -62.95580 | 35909 ft | 361 kts | 242° |
| 2026-05-03 22:12 | -37.34312 | -63.00856 | 35910 ft | 361 kts | 242° |
| 2026-05-03 22:13 | -37.37087 | -63.06132 | 35898 ft | 361 kts | 242° |
| 2026-05-03 22:13 | -37.39856 | -63.11389 | 35907 ft | 360 kts | 242° |
| 2026-05-03 22:14 | -37.42623 | -63.16654 | 35897 ft | 361 kts | 242° |
| 2026-05-03 22:14 | -37.45368 | -63.21888 | 35897 ft | 360 kts | 242° |
| 2026-05-03 22:15 | -37.48127 | -63.27158 | 35891 ft | 360 kts | 242° |
| 2026-05-03 22:15 | -37.50880 | -63.32424 | 35891 ft | 360 kts | 242° |
| 2026-05-03 22:16 | -37.53631 | -63.37695 | 35885 ft | 359 kts | 242° |
| 2026-05-03 22:16 | -37.56386 | -63.42981 | 35885 ft | 359 kts | 242° |
| 2026-05-03 22:17 | -37.59114 | -63.48225 | 35894 ft | 360 kts | 242° |
| 2026-05-03 22:17 | -37.61864 | -63.53519 | 35877 ft | 360 kts | 242° |
| 2026-05-03 22:18 | -37.64603 | -63.58800 | 35881 ft | 359 kts | 242° |
| 2026-05-03 22:18 | -37.67339 | -63.64083 | 35872 ft | 358 kts | 242° |
| 2026-05-03 22:19 | -37.70049 | -63.69326 | 35869 ft | 358 kts | 242° |
| 2026-05-03 22:19 | -37.72771 | -63.74600 | 35880 ft | 358 kts | 242° |
| 2026-05-03 22:20 | -37.75485 | -63.79866 | 35873 ft | 357 kts | 242° |
| 2026-05-03 22:20 | -37.78214 | -63.85171 | 35865 ft | 357 kts | 242° |
| 2026-05-03 22:21 | -37.80897 | -63.90396 | 35861 ft | 356 kts | 242° |
| 2026-05-03 22:21 | -37.83600 | -63.95666 | 35861 ft | 355 kts | 242° |
| 2026-05-03 22:22 | -37.86290 | -64.00919 | 35855 ft | 355 kts | 243° |
| 2026-05-03 22:22 | -37.88957 | -64.06136 | 35870 ft | 355 kts | 243° |
| 2026-05-03 22:23 | -37.91633 | -64.11381 | 35852 ft | 355 kts | 243° |
| 2026-05-03 22:23 | -37.94308 | -64.16631 | 35853 ft | 354 kts | 243° |
| 2026-05-03 22:24 | -37.96980 | -64.21882 | 35860 ft | 354 kts | 243° |
| 2026-05-03 22:24 | -37.99651 | -64.27142 | 35853 ft | 355 kts | 243° |
| 2026-05-03 22:25 | -38.02329 | -64.32423 | 35847 ft | 356 kts | 243° |
| 2026-05-03 22:25 | -38.05003 | -64.37706 | 35851 ft | 356 kts | 243° |
| 2026-05-03 22:26 | -38.07662 | -64.42965 | 35843 ft | 356 kts | 243° |
| 2026-05-03 22:26 | -38.10346 | -64.48284 | 35847 ft | 356 kts | 243° |
| 2026-05-03 22:27 | -38.13005 | -64.53571 | 35840 ft | 356 kts | 243° |
| 2026-05-03 22:27 | -38.15644 | -64.58835 | 35838 ft | 356 kts | 243° |
| 2026-05-03 22:28 | -38.18309 | -64.64158 | 35840 ft | 356 kts | 243° |
| 2026-05-03 22:28 | -38.20964 | -64.69469 | 35836 ft | 356 kts | 243° |
| 2026-05-03 22:29 | -38.23617 | -64.74785 | 35835 ft | 356 kts | 243° |
| 2026-05-03 22:29 | -38.26266 | -64.80103 | 35836 ft | 355 kts | 243° |
| 2026-05-03 22:30 | -38.28917 | -64.85431 | 35836 ft | 355 kts | 243° |
| 2026-05-03 22:30 | -38.31550 | -64.90733 | 35835 ft | 355 kts | 243° |
| 2026-05-03 22:31 | -38.34189 | -64.96056 | 35833 ft | 355 kts | 243° |
| 2026-05-03 22:31 | -38.36812 | -65.01356 | 35824 ft | 355 kts | 243° |
| 2026-05-03 22:32 | -38.39450 | -65.06694 | 35833 ft | 355 kts | 243° |
| 2026-05-03 22:32 | -38.42085 | -65.12034 | 35826 ft | 355 kts | 243° |
| 2026-05-03 22:33 | -38.44717 | -65.17378 | 35822 ft | 355 kts | 243° |
| 2026-05-03 22:33 | -38.47344 | -65.22721 | 35826 ft | 355 kts | 243° |
| 2026-05-03 22:34 | -38.49971 | -65.28071 | 35818 ft | 355 kts | 243° |
| 2026-05-03 22:34 | -38.52583 | -65.33400 | 35824 ft | 355 kts | 243° |
| 2026-05-03 22:35 | -38.55207 | -65.38762 | 35820 ft | 355 kts | 244° |
| 2026-05-03 22:35 | -38.57830 | -65.44132 | 35818 ft | 355 kts | 244° |
| 2026-05-03 22:36 | -38.60425 | -65.49454 | 35814 ft | 355 kts | 244° |
| 2026-05-03 22:36 | -38.63035 | -65.54814 | 35814 ft | 355 kts | 244° |
| 2026-05-03 22:37 | -38.65641 | -65.60175 | 35813 ft | 354 kts | 244° |
| 2026-05-03 22:37 | -38.68246 | -65.65544 | 35813 ft | 354 kts | 244° |
| 2026-05-03 22:38 | -38.70847 | -65.70914 | 35812 ft | 354 kts | 244° |
| 2026-05-03 22:38 | -38.73433 | -65.76261 | 35813 ft | 354 kts | 244° |
| 2026-05-03 22:39 | -38.76026 | -65.81631 | 35840 ft | 355 kts | 244° |
| 2026-05-03 22:39 | -38.78623 | -65.87020 | 35811 ft | 356 kts | 244° |
| 2026-05-03 22:40 | -38.81228 | -65.92433 | 35813 ft | 356 kts | 244° |
| 2026-05-03 22:40 | -38.83820 | -65.97830 | 35816 ft | 356 kts | 244° |
| 2026-05-03 22:41 | -38.86415 | -66.03241 | 35810 ft | 355 kts | 244° |
| 2026-05-03 22:41 | -38.89004 | -66.08647 | 35808 ft | 355 kts | 244° |
| 2026-05-03 22:42 | -38.91151 | -66.13140 | 35807 ft | 355 kts | 244° |
| 2026-05-03 22:42 | -38.93730 | -66.18556 | 35808 ft | 355 kts | 244° |
| 2026-05-03 22:43 | -38.96295 | -66.23958 | 35813 ft | 354 kts | 244° |
| 2026-05-03 22:43 | -38.98864 | -66.29375 | 35816 ft | 354 kts | 244° |
| 2026-05-03 22:44 | -39.01419 | -66.34775 | 35812 ft | 355 kts | 244° |
| 2026-05-03 22:44 | -39.03983 | -66.40200 | 35810 ft | 354 kts | 244° |
| 2026-05-03 22:45 | -39.06543 | -66.45627 | 35816 ft | 354 kts | 244° |
| 2026-05-03 22:45 | -39.09085 | -66.51024 | 35812 ft | 354 kts | 244° |
| 2026-05-03 22:46 | -39.11634 | -66.56448 | 35816 ft | 354 kts | 244° |
| 2026-05-03 22:46 | -39.14181 | -66.61875 | 35856 ft | 354 kts | 244° |
| 2026-05-03 22:47 | -39.16731 | -66.67317 | 35830 ft | 355 kts | 244° |
| 2026-05-03 22:47 | -39.19284 | -66.72776 | 35820 ft | 355 kts | 244° |
| 2026-05-03 22:48 | -39.21824 | -66.78216 | 35812 ft | 355 kts | 244° |
| 2026-05-03 22:48 | -39.24370 | -66.83676 | 35812 ft | 355 kts | 244° |
| 2026-05-03 22:49 | -39.26911 | -66.89137 | 35821 ft | 355 kts | 244° |
| 2026-05-03 22:49 | -39.29453 | -66.94612 | 35826 ft | 355 kts | 244° |
| 2026-05-03 22:50 | -39.31979 | -67.00059 | 35816 ft | 355 kts | 244° |
| 2026-05-03 22:50 | -39.34508 | -67.05521 | 35815 ft | 354 kts | 244° |
| 2026-05-03 22:51 | -39.37043 | -67.11007 | 35806 ft | 354 kts | 244° |
| 2026-05-03 22:51 | -39.39553 | -67.16448 | 35810 ft | 353 kts | 244° |
| 2026-05-03 22:52 | -39.42067 | -67.21906 | 35823 ft | 353 kts | 244° |
| 2026-05-03 22:52 | -39.44575 | -67.27364 | 35810 ft | 353 kts | 244° |
| 2026-05-03 22:53 | -39.47082 | -67.32826 | 35807 ft | 353 kts | 244° |
| 2026-05-03 22:53 | -39.49588 | -67.38297 | 35806 ft | 353 kts | 244° |
| 2026-05-03 22:54 | -39.52090 | -67.43768 | 35806 ft | 353 kts | 245° |
| 2026-05-03 22:54 | -39.54597 | -67.49261 | 35815 ft | 354 kts | 245° |
| 2026-05-03 22:55 | -39.57099 | -67.54752 | 35808 ft | 354 kts | 245° |
| 2026-05-03 22:55 | -39.59579 | -67.60203 | 35799 ft | 353 kts | 245° |
| 2026-05-03 22:56 | -39.62073 | -67.65694 | 35803 ft | 352 kts | 245° |
| 2026-05-03 22:56 | -39.64559 | -67.71179 | 35800 ft | 352 kts | 245° |
| 2026-05-03 22:57 | -39.67038 | -67.76656 | 35801 ft | 351 kts | 245° |
| 2026-05-03 22:57 | -39.69510 | -67.82131 | 35797 ft | 351 kts | 245° |
| 2026-05-03 22:58 | -39.71978 | -67.87603 | 35797 ft | 351 kts | 245° |
| 2026-05-03 22:58 | -39.74441 | -67.93077 | 35797 ft | 351 kts | 245° |
| 2026-05-03 22:59 | -39.76896 | -67.98541 | 35792 ft | 351 kts | 245° |
| 2026-05-03 22:59 | -39.79362 | -68.04039 | 35795 ft | 351 kts | 245° |
| 2026-05-03 23:00 | -39.81869 | -68.09506 | 35795 ft | 352 kts | 243° |
| 2026-05-03 23:00 | -39.84560 | -68.14813 | 35793 ft | 353 kts | 242° |
| 2026-05-03 23:01 | -39.87289 | -68.20123 | 35772 ft | 354 kts | 242° |
| 2026-05-03 23:01 | -39.90009 | -68.25455 | 35806 ft | 353 kts | 241° |
| 2026-05-03 23:02 | -39.92726 | -68.30812 | 35795 ft | 353 kts | 241° |
| 2026-05-03 23:02 | -39.95418 | -68.36140 | 35796 ft | 353 kts | 242° |
| 2026-05-03 23:03 | -39.98118 | -68.41496 | 35787 ft | 352 kts | 242° |
| 2026-05-03 23:03 | -40.00790 | -68.46804 | 35795 ft | 349 kts | 242° |
| 2026-05-03 23:04 | -40.03453 | -68.52103 | 35804 ft | 347 kts | 242° |
| 2026-05-03 23:04 | -40.06079 | -68.57341 | 35808 ft | 348 kts | 242° |
| 2026-05-03 23:05 | -40.08732 | -68.62641 | 35814 ft | 349 kts | 242° |
| 2026-05-03 23:05 | -40.11396 | -68.67972 | 35805 ft | 351 kts | 242° |
| 2026-05-03 23:06 | -40.14078 | -68.73349 | 35815 ft | 353 kts | 242° |
| 2026-05-03 23:06 | -40.16770 | -68.78752 | 35809 ft | 355 kts | 242° |
| 2026-05-03 23:07 | -40.19470 | -68.84182 | 35806 ft | 357 kts | 242° |
| 2026-05-03 23:07 | -40.22166 | -68.89612 | 35820 ft | 357 kts | 242° |
| 2026-05-03 23:08 | -40.24878 | -68.95085 | 35816 ft | 358 kts | 242° |
| 2026-05-03 23:08 | -40.27600 | -69.00587 | 35811 ft | 359 kts | 242° |
| 2026-05-03 23:09 | -40.30302 | -69.06059 | 35808 ft | 358 kts | 242° |
| 2026-05-03 23:09 | -40.33007 | -69.11545 | 35812 ft | 357 kts | 242° |
| 2026-05-03 23:10 | -40.35700 | -69.17015 | 35809 ft | 357 kts | 242° |
| 2026-05-03 23:10 | -40.38392 | -69.22482 | 35720 ft | 357 kts | 242° |
| 2026-05-03 23:10 | -40.39739 | -69.25220 | 35444 ft | 356 kts | 242° |
| 2026-05-03 23:11 | -40.41079 | -69.27944 | 35203 ft | 354 kts | 242° |
| 2026-05-03 23:11 | -40.42418 | -69.30668 | 34952 ft | 353 kts | 242° |
| 2026-05-03 23:11 | -40.43733 | -69.33349 | 34720 ft | 354 kts | 242° |
| 2026-05-03 23:11 | -40.45067 | -69.36072 | 34484 ft | 354 kts | 242° |
| 2026-05-03 23:12 | -40.46401 | -69.38797 | 34231 ft | 354 kts | 242° |
| 2026-05-03 23:12 | -40.47737 | -69.41530 | 33477 ft | 357 kts | 242° |
| 2026-05-03 23:12 | -40.49075 | -69.44268 | 32951 ft | 354 kts | 242° |
| 2026-05-03 23:12 | -40.50409 | -69.46997 | 32405 ft | 352 kts | 242° |
| 2026-05-03 23:13 | -40.51711 | -69.49664 | 31922 ft | 349 kts | 242° |
| 2026-05-03 23:13 | -40.53015 | -69.52336 | 31419 ft | 346 kts | 242° |
| 2026-05-03 23:13 | -40.54312 | -69.54998 | 30958 ft | 344 kts | 242° |
| 2026-05-03 23:13 | -40.55599 | -69.57642 | 30465 ft | 342 kts | 242° |
| 2026-05-03 23:14 | -40.56878 | -69.60273 | 30004 ft | 340 kts | 242° |
| 2026-05-03 23:14 | -40.58148 | -69.62887 | 29451 ft | 338 kts | 242° |
| 2026-05-03 23:14 | -40.59410 | -69.65487 | 28922 ft | 335 kts | 242° |
| 2026-05-03 23:14 | -40.60656 | -69.68056 | 28438 ft | 332 kts | 242° |
| 2026-05-03 23:15 | -40.61893 | -69.70607 | 27954 ft | 329 kts | 242° |
| 2026-05-03 23:15 | -40.63121 | -69.73143 | 27444 ft | 327 kts | 242° |
| 2026-05-03 23:15 | -40.64353 | -69.75688 | 26963 ft | 324 kts | 242° |
| 2026-05-03 23:15 | -40.65545 | -69.78155 | 26474 ft | 323 kts | 242° |
| 2026-05-03 23:16 | -40.66745 | -69.80640 | 26001 ft | 321 kts | 242° |
| 2026-05-03 23:16 | -40.67945 | -69.83126 | 25529 ft | 320 kts | 242° |
| 2026-05-03 23:16 | -40.69134 | -69.85593 | 25058 ft | 318 kts | 242° |
| 2026-05-03 23:16 | -40.70321 | -69.88057 | 24615 ft | 317 kts | 242° |
| 2026-05-03 23:17 | -40.71503 | -69.90511 | 24133 ft | 317 kts | 242° |
| 2026-05-03 23:17 | -40.72679 | -69.92958 | 23667 ft | 316 kts | 242° |
| 2026-05-03 23:17 | -40.73849 | -69.95390 | 23156 ft | 317 kts | 242° |
| 2026-05-03 23:17 | -40.75028 | -69.97845 | 22622 ft | 316 kts | 242° |
| 2026-05-03 23:18 | -40.76211 | -70.00311 | 22134 ft | 314 kts | 242° |
| 2026-05-03 23:18 | -40.77372 | -70.02729 | 21655 ft | 313 kts | 242° |
| 2026-05-03 23:18 | -40.78535 | -70.05156 | 21159 ft | 310 kts | 242° |
| 2026-05-03 23:18 | -40.79670 | -70.07524 | 20723 ft | 308 kts | 242° |
| 2026-05-03 23:19 | -40.80811 | -70.09909 | 20266 ft | 306 kts | 242° |
| 2026-05-03 23:19 | -40.81950 | -70.12293 | 19791 ft | 306 kts | 242° |
| 2026-05-03 23:19 | -40.82715 | -70.13894 | 19484 ft | 305 kts | 242° |
| 2026-05-03 23:19 | -40.83846 | -70.16265 | 19015 ft | 305 kts | 242° |
| 2026-05-03 23:20 | -40.84973 | -70.18627 | 18583 ft | 304 kts | 242° |
| 2026-05-03 23:20 | -40.86100 | -70.20991 | 18089 ft | 304 kts | 242° |
| 2026-05-03 23:20 | -40.87228 | -70.23360 | 17564 ft | 304 kts | 242° |
| 2026-05-03 23:20 | -40.88364 | -70.25746 | 17075 ft | 303 kts | 242° |
| 2026-05-03 23:21 | -40.89486 | -70.28104 | 16596 ft | 301 kts | 242° |
| 2026-05-03 23:21 | -40.90586 | -70.30418 | 16136 ft | 300 kts | 242° |
| 2026-05-03 23:21 | -40.91692 | -70.32746 | 15678 ft | 298 kts | 242° |
| 2026-05-03 23:21 | -40.92791 | -70.35063 | 15207 ft | 297 kts | 242° |
| 2026-05-03 23:22 | -40.94976 | -70.39672 | 14306 ft | 295 kts | 242° |
| 2026-05-03 23:22 | -40.96068 | -70.41978 | 13843 ft | 295 kts | 242° |
| 2026-05-03 23:22 | -40.97157 | -70.44279 | 13359 ft | 294 kts | 242° |
| 2026-05-03 23:23 | -40.98361 | -70.46486 | 12869 ft | 296 kts | 236° |
| 2026-05-03 23:23 | -40.99672 | -70.48560 | 12418 ft | 295 kts | 235° |
| 2026-05-03 23:23 | -41.00993 | -70.50633 | 11953 ft | 294 kts | 236° |
| 2026-05-03 23:23 | -41.02303 | -70.52717 | 11479 ft | 293 kts | 236° |
| 2026-05-03 23:24 | -41.03597 | -70.54797 | 11015 ft | 292 kts | 236° |
| 2026-05-03 23:24 | -41.04877 | -70.56864 | 10614 ft | 288 kts | 237° |
| 2026-05-03 23:24 | -41.06141 | -70.58912 | 10193 ft | 286 kts | 237° |
| 2026-05-03 23:24 | -41.07365 | -70.60894 | 9996 ft | 276 kts | 237° |
| 2026-05-03 23:25 | -41.08561 | -70.62833 | 9874 ft | 266 kts | 237° |
| 2026-05-03 23:25 | -41.09723 | -70.64719 | 9581 ft | 261 kts | 238° |
| 2026-05-03 23:25 | -41.10868 | -70.66585 | 9230 ft | 258 kts | 238° |
| 2026-05-03 23:25 | -41.11995 | -70.68423 | 8869 ft | 256 kts | 238° |
| 2026-05-03 23:26 | -41.13110 | -70.70240 | 8657 ft | 248 kts | 238° |
| 2026-05-03 23:26 | -41.14174 | -70.71971 | 8539 ft | 238 kts | 239° |
| 2026-05-03 23:26 | -41.15202 | -70.73646 | 8447 ft | 228 kts | 239° |
| 2026-05-03 23:26 | -41.16182 | -70.75246 | 8369 ft | 225 kts | 239° |
| 2026-05-03 23:27 | -41.17169 | -70.76858 | 8374 ft | 219 kts | 239° |
| 2026-05-03 23:27 | -41.18132 | -70.78433 | 8322 ft | 220 kts | 239° |
| 2026-05-03 23:27 | -41.19085 | -70.79996 | 8265 ft | 221 kts | 240° |
| 2026-05-03 23:27 | -41.20053 | -70.81581 | 8144 ft | 219 kts | 240° |
| 2026-05-03 23:28 | -41.21027 | -70.83178 | 7893 ft | 227 kts | 240° |
| 2026-05-03 23:28 | -41.22039 | -70.84841 | 7601 ft | 235 kts | 240° |
| 2026-05-03 23:28 | -41.23064 | -70.86516 | 7307 ft | 233 kts | 240° |
| 2026-05-03 23:28 | -41.24064 | -70.88211 | 6970 ft | 230 kts | 246° |
| 2026-05-03 23:29 | -41.24413 | -70.90175 | 6763 ft | 218 kts | 279° |
| 2026-05-03 23:29 | -41.23762 | -70.91989 | 6489 ft | 219 kts | 301° |
| 2026-05-03 23:29 | -41.22968 | -70.93611 | 6235 ft | 208 kts | 297° |
| 2026-05-03 23:29 | -41.22655 | -70.94321 | 6133 ft | 203 kts | 295° |
| 2026-05-03 23:30 | -41.22544 | -70.94588 | 6089 ft | 202 kts | 295° |
| 2026-05-03 23:30 | -41.22239 | -70.95360 | 5928 ft | 198 kts | 293° |
| 2026-05-03 23:31 | -41.21727 | -70.96768 | 5717 ft | 189 kts | 292° |
| 2026-05-03 23:31 | -41.21178 | -70.98335 | 5455 ft | 185 kts | 292° |
| 2026-05-03 23:31 | -41.20639 | -70.99887 | 5223 ft | 184 kts | 292° |
| 2026-05-03 23:31 | -41.20115 | -71.01393 | 4971 ft | 174 kts | 292° |
| 2026-05-03 23:32 | -41.19630 | -71.02784 | 4728 ft | 164 kts | 292° |
| 2026-05-03 23:32 | -41.19165 | -71.04118 | 4495 ft | 154 kts | 292° |
| 2026-05-03 23:32 | -41.18741 | -71.05339 | 4283 ft | 136 kts | 292° |
| 2026-05-03 23:32 | -41.18373 | -71.06394 | 4122 ft | 124 kts | 292° |
| 2026-05-03 23:33 | -41.18007 | -71.07449 | 3932 ft | 127 kts | 291° |
| 2026-05-03 23:33 | -41.17643 | -71.08497 | 3750 ft | 121 kts | 291° |
| 2026-05-03 23:33 | -41.17302 | -71.09479 | 3577 ft | 115 kts | 292° |
| 2026-05-03 23:33 | -41.16971 | -71.10422 | 3407 ft | 116 kts | 293° |
| 2026-05-03 23:34 | -41.16632 | -71.11405 | 3276 ft | 117 kts | 294° |
| 2026-05-03 23:34 | -41.16289 | -71.12396 | 3128 ft | 116 kts | 295° |
| 2026-05-03 23:34 | -41.15962 | -71.13357 | 2977 ft | 113 kts | 296° |
| 2026-05-03 23:34 | -41.15638 | -71.14271 | 2824 ft | 106 kts | 297° |
| 2026-05-03 23:35 | -41.15330 | -71.15140 | 2750 ft | 92 kts | 294° |
| 2026-05-03 23:35 | -41.15126 | -71.15729 | 2750 ft | 51 kts | 294° |
| 2026-05-03 23:35 | -41.15038 | -71.15983 | 2752 ft | 10 kts | 295° |
| 2026-05-03 23:35 | -41.15035 | -71.15993 | 2755 ft | 0 kts | 295° |
| 2026-05-03 23:36 | -41.15025 | -71.16019 | 2753 ft | 10 kts | 294° |
| 2026-05-03 23:36 | -41.14977 | -71.16159 | 2755 ft | 20 kts | 295° |
| 2026-05-03 23:36 | -41.14916 | -71.16319 | 2754 ft | 18 kts | 313° |
| 2026-05-03 23:36 | -41.14846 | -71.16316 | 2751 ft | 8 kts | 30° |
| 2026-05-03 23:37 | -41.14835 | -71.16308 | 2750 ft | 0 kts | 26° |
| 2026-05-03 23:37 | -41.14824 | -71.16300 | 2750 ft | 4 kts | 27° |
| 2026-05-03 23:37 | -41.14804 | -71.16287 | 2749 ft | 5 kts | 25° |
| 2026-05-03 23:38 | -41.14772 | -71.16263 | 2748 ft | 7 kts | 32° |
| 2026-05-03 23:38 | -41.14727 | -71.16220 | 2748 ft | 9 kts | 47° |
| 2026-05-03 23:38 | -41.14706 | -71.16176 | 2750 ft | 4 kts | 58° |
| 2026-05-03 23:38 | -41.14698 | -71.16159 | 2748 ft | 1 kts | 58° |
| 2026-05-03 23:39 | -41.14698 | -71.16157 | 2748 ft | 0 kts | 58° |